Here is the Quick Look data you requested

The Data originates at the National Weather Service, and is made available here by the UAlbany Department of Atmospheric and Environmental Sciences

Surface Observations

PAAQ 241053Z AUTO 30007G17KT 10SM CLR 03/M04 A2970 RMK AO2 PK WND 34026/0954
 SLP060 T00331044 TSNO=
PABA 241052Z AUTO 07004KT 10SM BKN008 M18/M20 A2979 RMK AO2 SLP072 T11781200
 FZRANO TSNO=
PABE 241053Z 03006KT 10SM BKN100 M01/M02 A2942 RMK AO2 SLP964 T10061022 $=
PABI 241053Z AUTO 10018KT 10SM CLR M11/M15 A2980 RMK AO2 SLP134 T11111150 TSNO=
PABL 241056Z AUTO 11019G26KT 10SM OVC016 M04/M07 A2952 RMK AO2 PK WND
 10026/1053 SNB0958E10 SLP998 P0000 T10441067 FZRANO=
PABT 241053Z 34004KT 7SM -SN OVC031 M10/M12 A2976 RMK AO2 SLP099 T11001122 PNO
 $=
PABV 241056Z AUTO 19005KT 10SM FEW120 01/M02 A2970 RMK AO2 SLP067 T00061017
 FZRANO=
PACD 241053Z AUTO 13019KT 10SM OVC034 02/01 A2911 RMK AO2 PK WND 13027/1042
 SLP858 I1000 T00220006 TSNO=
PACV 241053Z 11007G16KT 10SM FEW029 BKN042 OVC060 06/02 A2989 RMK AO2 RAE12
 SLP122 P0000 T00610017=
PACZ 241055Z AUTO 15016KT 10SM -SHRA OVC009 01/00 A2936 RMK AO2
 RAB1026E1051SHRAB1051 SLP949 P0000 T00061001=
PADE 241053Z AUTO 12018KT 10SM FEW060 OVC090 M01/M04 A2943 RMK AO2 SLP966
 T10111039 TSNO=
PADK 241056Z AUTO 24003KT 10SM CLR M07/M09 A2916 RMK AO2 SLP876 T10721094
 FZRANO=
PADQ 241053Z AUTO 07027G36KT 2SM RA BR BKN009 OVC020 06/06 A2930 RMK AO2 PK WND
 07040/0955 SLP922 P0010 T00560056 TSNO=
PAED 241056Z AUTO 00000KT 10SM SCT075 BKN130 M01/M02 A2969 RMK AO2 SLP052
 T10111017=
PAEG 241053Z AUTO 14009KT 110V180 10SM CLR M10/M16 A2996 RMK AO2 SLP165
 T11001161 TSNO=
PAEH 241055Z AUTO 12017G21KT 090V150 10SM FEW024 OVC031 02/M01 A2929 RMK AO2 PK
 WND 13028/0955 SLP924 T00231009=
PAEI 241056Z 00000KT 10SM FEW090 SCT120 M17/M20 A2977 RMK AO2A SLP097 T11731203
 $=
PAEM 241056Z AUTO 14008KT 10SM OVC012 M02/M03 A2946 RMK AO2 SLP033 T10221028
 FZRANO=
PAEN 241053Z AUTO 01009KT 10SM OVC110 02/M01 A2963 RMK AO2 SLP036 T00171006
 TSNO=
PAFA 241053Z 00000KT 10SM FEW080 SCT130 M18/M21 A2978 RMK AO2 SLP099 T11781206
 PNO=
PAFB 241058Z AUTO 00000KT 10SM CLR M19/M21 A2979 RMK AO2 SLP103 T11911209=
PAFE 241056Z AUTO 09005KT 10SM OVC017 04/03 A3033 RMK AO2 SLP284 T00440033=
PAFM 241056Z AUTO 12013KT 9SM -SN OVC019 M06/M08 A2969 RMK AO2 SLP069 P0000
 T10611078 FZRANO=
PAGA 241056Z AUTO 11016KT 10SM OVC043 M07/M11 A2967 RMK AO2 SLP049 T10721106
 FZRANO=
PAGK 241053Z AUTO 17008KT 10SM BKN120 M02/M03 A2983 RMK AO2 SLP137 I1000
 T10171028 TSNO=
PAGL 241056Z AUTO 18021KT 10SM OVC008 M03/M04 A2947 RMK AO2 PK WND 18026/1053
 UPE32SNB15E24 SLP976 P0000 T10281039 FZRANO=
PAGM 241056Z AUTO 04026G35KT 1SM -SN BR M15/M17 A2944 RMK AO2 PK WND 04037/1046
 SLP977 P0000 T11501172 FZRANO $=
PAGS 241056Z AUTO 13010KT 10SM SCT040 OVC050 05/02 A3025 RMK AO2 SLP244
 T00500017=
PAGY 241053Z AUTO 20011G21KT 10SM FEW016 OVC050 05/ A3024 RMK AO2 PK WND
 21028/1015 SLP241 T0050 TSNO $=
PAHN 241054Z AUTO 27007KT 250V320 10SM OVC010 M02/M03 A3025 RMK AO2 SLP247
 T10221033 TSNO=
PAHO 241053Z AUTO 07022G30KT 10SM -RA OVC036 05/01 A2953 RMK AO2 PK WND
 06030/1053 RAB11 SLP001 P0000 T00500011 TSNO=
PAHY 241056Z AUTO 12008G18KT 10SM BKN013 OVC037 07/04 A3037 RMK AO2 SLP385
 T00670044 $=
PAII 241056Z AUTO 04004KT 1 1/2SM -SN BR SCT006 OVC015 01/M01 A2925 RMK AO2
 SLP908 P0005 T00061011 FZRANO=
PAIL 241053Z AUTO 08014G18KT 10SM -RA FEW025 SCT031 BKN039 04/02 A2943 RMK AO2
 RAB53 SLP968 P0000 T00440017 TSNO $=
PAIM 241055Z AUTO 18001KT 10SM OVC015 M12/M13 A2970 RMK AO2 SLP097 T11201132=
PAIN 241056Z 21003KT 10SM BKN045 OVC055 02/M04 A2971 RMK AO2 SLP089 T00171044
 FZRANO=
PAJC 241057Z AUTO 00000KT 9SM UP OVC017 01/00 A2920 RMK AO2 UPB54SNE54 SLP888
 P0003 T00060000 FZRANO=
PAJN 241053Z 07008KT 10SM BKN019 BKN032 OVC050 04/02 A3029 RMK AO2 SLP258
 T00390022=
PAKN 241054Z 08020G29KT 10SM OVC060 03/M01 A2924 RMK AO2 PK WND 08032/1012
 RAE04 SLPNO P0000 T00281006 $=
PAKT 241053Z AUTO 16006KT 10SM OVC022 05/04 A3039 RMK AO2 SLP293 T00500039 TSNO=
PAKV 241053Z AUTO 00000KT 1 1/2SM -SN BR BKN017 OVC025 M07/M08 A2965 RMK AO2
 UPE04SNB04 SLP043 P0000 T10671078 TSNO=
PAKW 241053Z AUTO 00000KT 10SM OVC028 05/04 A3033 RMK AO2 SLP271 T00500044 TSNO=
PALH 241053Z 29005KT 10SM BKN075 BKN120 M01/M03 A2971 RMK AO2 SLP060 T10061033=
PALU 241055Z AUTO 09017KT 10SM BKN014 BKN026 OVC070 M18/M20 A2974 RMK AO2
 SHSNB0934E1045 SLP073 T11831205=
PAMC 241053Z AUTO 00000KT 10SM CLR M12/M13 A2964 RMK AO2 SLP047 T11171128 TSNO
 $=
PAMD 241051Z AUTO 09027G34KT 8SM OVC016 06/04 A2975 RMK AO2 PK WND 11035/1032
 RAB32E49 PRESFR SLP065 P0000 T00560039=
PAMH 241056Z AUTO 00000KT 10SM CLR M17/M19 A2972 RMK AO2 SLP820 T11721189
 FZRANO=
PAMM 241056Z AUTO 00000KT 5SM -RA BR OVC015 05/04 A3041 RMK AO2 RAB08 SLP289
 P0000 T00500044=
PAMR 241053Z 00000KT 10SM FEW065 BKN080 M01/M04 A2970 RMK AO2 SLP059 T10111044=
PAMY 241056Z AUTO 10008KT 1/4SM FZFG BKN003 BKN006 M03/M03 A2935 RMK AO2 CIG
 001V005 SLP943 T10281028 FZRANO $=
PANC 241053Z 29006KT 10SM BKN070 BKN120 01/M03 A2970 RMK AO2 SLP059 T00061028=
PANI 241056Z AUTO 09005KT 10SM OVC100 00/M02 A2949 RMK AO2 SLP956 T00001022
 FZRANO=
PANN 241053Z AUTO 00000KT 10SM CLR M17/M19 A2975 RMK AO2 SLP087 T11721194 TSNO=
PAOH 241056Z AUTO 08008KT 10SM SCT025 BKN055 04/02 A3025 RMK AO2 SLP245
 T00440022=
PAOM 241053Z AUTO 18009KT 10SM BKN007 OVC015 M04/M04 A2939 RMK AO2 SNE24 SLP952
 P0000 T10391039 TSNO=
PAOR 241053Z 00000KT 10SM FEW090 FEW120 SCT240 M23/M24 A2996 RMK AO2 SLP219
 T12281244=
PAOT 241053Z AUTO 10021KT 8SM SCT020 BKN032 OVC046 M05/M07 A2950 RMK AO2 PK WND
 10027/1020 SLP990 I1000 T10501067 TSNO=
PAPB 241053Z AUTO 08020KT 10SM SCT010 BKN015 OVC048 02/02 A2905 RMK AO2 PK WND
 09028/1006 UPE06B31E42SNB06E17 SLP825 P0000 T00220022 TSNO $=
PAPG 241056Z 18003KT 10SM SCT018 BKN024 OVC038 02/02 A3038 RMK AO2 SLP289
 T00220017=
PAPH 241056Z AUTO 02007KT 8SM -SN FEW004 BKN024 OVC030 00/M01 A2920 RMK AO2
 SLP890 P0001 T00001006 FZRANO=
PAPO 241056Z AUTO 03018KT 4SM -SN BR OVC024 M14/M16 A2962 RMK AO2 SLP031 P0000
 T11391161 FZRANO=
PARC 241056Z AUTO 00000KT 10SM OVC110 M19/M21 A2968 RMK AO2 SLP143 T11891211
 FZRANO=
PASA 241056Z AUTO 35004KT 6SM -SN BR OVC020 M14/M17 A2946 RMK AO2 SLP977 P0002
 T11441167 FZRANO $=
PASC 241053Z 03005KT 10SM OVC011 M18/M22 A2979 RMK AO2 SLP091 T11831217=
PASD 241056Z AUTO 00000KT 9SM -RA BKN011 OVC037 02/01 A2922 RMK AO2 UPE17RAB17
 CIG 009V013 SLP896 T00220011 FZRANO PNO $=
PASH 241056Z AUTO 05008KT 5SM -SN BR BKN029 OVC035 M07/M07 A2943 RMK AO2 SLP967
 P0000 T10671072 FZRANO=
PASI 241053Z 33003KT 10SM SCT065 07/04 A3020 RMK AO2 SLP226 T00670044=
PASK 241056Z AUTO 08012KT 10SM OVC030 M06/M07 A2959 RMK AO2 SNE15 SLP018 P0000
 T10611072 FZRANO $=
PASL 241056Z AUTO 00000KT 9SM BKN100 M03/M04 A2957 RMK AO2 SLP010 T10331044
 FZRANO=
PASM 241100Z AUTO 13006KT 6SM BR OVC004 M01/M01 RMK AO2 FZRANO $=
PASN 241053Z AUTO 08017KT 6SM -RA BR OVC009 02/01 A2910 RMK AO2 UPB00E29 SLP854
 P0000 T00170011 TSNO $=
PASO 241053Z AUTO 00000KT 8SM -RA OVC036 03/02 A2951 RMK AO2 SLP994 P0002
 T00280022 TSNO=
PASV 241055Z AUTO 04010KT 10SM BKN060 04/M04 A2943 RMK AO2 SLP978 T00371043=
PASX 241056Z AUTO 06007KT 10SM SCT110 06/00 A2963 RMK AO2 SLP043 T00610000=
PASY 241058Z 15024KT 7SM -SN BKN014 BKN029 OVC039 M00/M03 A2874 RMK AO2 PK WND
 16033/1015 SNB1015E1032B1056 CIG 012V016 SLP736 RVRNO FZRANO $=
PATA 241052Z 05007KT 10SM CLR M15/M19 A2980 RMK AO2 SLP100 T11501194 PNO=
PATC 241055Z AUTO 01032G44KT 1/4SM SN BKN008 M13/M14 A2937 RMK AO2 SNB0955
 SLP956 P0000 T11341142=
PATG 241056Z AUTO 02015G19KT 10SM SCT031 BKN060 OVC075 02/M01 A2932 RMK AO2
 SLP021 T00221006 FZRANO=
PATK 241053Z AUTO 03013G20KT 10SM CLR 01/M06 A2974 RMK AO2 SLP077 T00111061
 TSNO=
PATL 241055Z AUTO 00000KT 10SM OVC009 M09/M10 A2962 RMK AO2 SLP056 T10941100=
PATO 241053Z AUTO 11026G46KT 3SM -RA BKN020 OVC027 06/02 A2977 RMK AO2 PK WND
 08049/1003 SLP082 P0007 T00560017 TSNO $=
PAUN 241056Z AUTO 07011KT 10SM OVC032 M01/M03 A2955 RMK AO2 SLP011 T10061033
 FZRANO=
PAVD 241056Z AUTO 00000KT 2 1/2SM BR FEW003 BKN021 OVC065 00/M01 A2992 RMK AO2
 SLP157 P0001 T00001006 FZRANO=
PAVL 241053Z AUTO 06012KT 1 1/4SM -SN BR BKN013 OVC026 M06/M07 A2953 RMK AO2
 SLP999 P0002 T10611072 TSNO $=
PAWI 241053Z AUTO 04009KT 10SM OVC011 M20/M23 A2982 RMK AO2 SLP099 T12001233
 TSNO=
PAWN 241056Z AUTO 01003KT 7SM -SN OVC025 M06/M07 A2955 RMK AO2 SLP019 P0000
 T10561067 FZRANO=
PAWS 241056Z AUTO 06011KT 10SM FEW090 BKN110 05/M04 A2969 RMK AO2 SLP070
 T00501039=
PAYA 241053Z AUTO 07010KT 10SM SCT016 SCT037 BKN045 04/03 A3009 RMK AO2 SLP189
 T00440033 TSNO=
PAZK 241056Z AUTO 01009KT 10SM FEW120 M08/M09 A2969 RMK AO2 SLP120 T10831094
 FZRANO=
PPIZ 241056Z AUTO 03021KT 5SM HZ SCT060 SCT080 M22/M24 A2978 RMK AO2 SLP090
 T12171244 FZRANO=